createdAt,value
2018-09-02T00:03:07.975Z,87.25
2018-09-02T00:06:32.780Z,86.69
2018-09-02T00:09:57.774Z,87.20
2018-09-02T00:13:22.708Z,87.19
2018-09-02T00:16:47.689Z,86.84
2018-09-02T00:20:12.651Z,87.93
2018-09-02T00:23:37.729Z,88.28
2018-09-02T00:27:02.639Z,90.74
2018-09-02T00:30:27.681Z,89.96
2018-09-02T00:33:52.580Z,90.23
2018-09-02T00:37:17.501Z,89.87
2018-09-02T00:40:42.560Z,90.00
2018-09-02T00:44:07.980Z,89.64
2018-09-02T00:47:32.844Z,89.22
2018-09-02T00:50:57.612Z,87.52
2018-09-02T00:54:22.457Z,87.51
2018-09-02T00:57:47.102Z,87.20
2018-09-02T01:01:11.753Z,87.37
2018-09-02T01:06:00.875Z,87.88
2018-09-02T01:09:25.524Z,84.75
2018-09-02T01:12:50.198Z,86.73
2018-09-02T01:16:14.862Z,87.42
2018-09-02T01:19:39.612Z,87.75
2018-09-02T01:23:04.379Z,87.06
2018-09-02T01:26:29.028Z,86.04
2018-09-02T01:29:53.690Z,86.41
2018-09-02T01:33:18.330Z,85.71
2018-09-02T01:36:42.992Z,86.60
2018-09-02T01:40:07.708Z,86.79
2018-09-02T01:43:32.327Z,85.65
2018-09-02T01:46:57.021Z,87.96
2018-09-02T01:50:21.692Z,87.26
2018-09-02T01:53:46.384Z,87.27
2018-09-02T01:57:11.230Z,86.80
2018-09-02T02:00:36.350Z,87.54
2018-09-02T02:04:01.251Z,87.04
2018-09-02T02:07:26.198Z,87.78
2018-09-02T02:10:51.028Z,87.82
2018-09-02T02:14:16.254Z,85.64
2018-09-02T02:17:41.275Z,87.06
2018-09-02T02:21:06.162Z,87.22
2018-09-02T02:24:31.002Z,86.63
2018-09-02T02:27:55.856Z,86.90
2018-09-02T02:31:20.852Z,87.54
2018-09-02T02:34:45.698Z,86.12
2018-09-02T02:38:10.526Z,87.91
2018-09-02T02:41:36.098Z,86.81
2018-09-02T02:45:00.886Z,88.21
2018-09-02T02:48:25.840Z,87.78
2018-09-02T02:51:50.725Z,88.32
2018-09-02T02:55:15.564Z,88.24
2018-09-02T02:58:40.394Z,87.34
2018-09-02T03:02:05.316Z,88.70
2018-09-02T03:05:30.315Z,88.64
2018-09-02T03:08:55.061Z,88.49
2018-09-02T03:12:19.699Z,88.68
2018-09-02T03:15:45.537Z,88.93
2018-09-02T03:19:10.468Z,89.28
2018-09-02T03:22:35.169Z,88.76
2018-09-02T03:26:00.055Z,89.49
2018-09-02T03:29:24.902Z,90.57
2018-09-02T03:32:49.740Z,90.22
2018-09-02T03:36:14.653Z,89.71
2018-09-02T03:39:39.780Z,89.84
2018-09-02T03:43:04.852Z,86.17
2018-09-02T03:46:29.920Z,86.66
2018-09-02T03:49:54.672Z,87.90
2018-09-02T03:53:19.523Z,87.80
2018-09-02T03:56:44.334Z,87.09
2018-09-02T04:00:09.504Z,89.19
2018-09-02T04:03:34.537Z,89.79
2018-09-02T04:06:59.375Z,89.49
2018-09-02T04:10:24.184Z,89.92
2018-09-02T04:13:49.256Z,89.71
2018-09-02T04:17:14.154Z,90.66
2018-09-02T04:20:39.010Z,88.84
2018-09-02T04:24:04.124Z,88.49
2018-09-02T04:27:29.131Z,89.22
2018-09-02T04:30:54.038Z,88.93
2018-09-02T04:34:18.943Z,88.55
2018-09-02T04:37:43.882Z,88.77
2018-09-02T04:41:08.792Z,88.72
2018-09-02T04:44:33.617Z,88.60
2018-09-02T04:47:58.709Z,89.14
2018-09-02T04:51:23.408Z,88.94
2018-09-02T04:54:48.131Z,88.63
2018-09-02T04:58:12.833Z,87.80
2018-09-02T05:01:37.513Z,88.20
2018-09-02T05:05:02.438Z,87.86
2018-09-02T05:08:36.520Z,87.61
2018-09-02T05:12:01.195Z,88.40
2018-09-02T05:15:25.850Z,87.20
2018-09-02T05:18:50.566Z,88.51
2018-09-02T05:22:15.307Z,87.92
2018-09-02T05:25:40.023Z,87.83
2018-09-02T05:29:04.707Z,88.60
2018-09-02T05:32:29.409Z,86.90
2018-09-02T05:35:54.241Z,85.21
2018-09-02T05:39:18.911Z,88.16
2018-09-02T05:42:43.607Z,88.42
2018-09-02T05:46:08.319Z,85.36
2018-09-02T05:49:32.944Z,87.09
2018-09-02T05:52:57.663Z,87.98
2018-09-02T05:56:22.313Z,86.77
2018-09-02T05:59:46.980Z,85.71
2018-09-02T06:03:11.620Z,88.44
2018-09-02T06:06:36.421Z,88.48
2018-09-02T06:10:01.057Z,88.45
2018-09-02T06:13:25.719Z,87.45
2018-09-02T06:16:50.499Z,88.62
2018-09-02T06:20:15.551Z,89.12
2018-09-02T06:23:40.406Z,88.44
2018-09-02T06:27:05.361Z,89.45
2018-09-02T06:30:29.995Z,89.33
2018-09-02T06:33:54.777Z,88.90
2018-09-02T06:37:19.445Z,88.03
2018-09-02T06:40:44.085Z,88.75
2018-09-02T06:44:08.965Z,87.89
2018-09-02T06:47:33.633Z,87.41
2018-09-02T06:50:58.330Z,88.86
2018-09-02T06:54:23.231Z,87.79
2018-09-02T06:57:47.899Z,88.16
2018-09-02T07:01:12.600Z,86.57
2018-09-02T07:04:37.287Z,77.43
2018-09-02T07:08:01.998Z,85.14
2018-09-02T07:11:26.838Z,84.06
2018-09-02T07:14:51.553Z,87.16
2018-09-02T07:18:16.227Z,87.22
2018-09-02T07:21:40.937Z,86.77
2018-09-02T07:25:05.807Z,86.78
2018-09-02T07:28:34.390Z,86.87
2018-09-02T07:31:59.119Z,84.72
2018-09-02T07:35:23.935Z,86.46
2018-09-02T07:38:48.781Z,86.21
2018-09-02T07:42:13.434Z,85.21
2018-09-02T07:45:38.263Z,86.99
2018-09-02T07:49:03.039Z,86.82
2018-09-02T07:52:27.825Z,83.71
2018-09-02T07:55:52.637Z,85.00
2018-09-02T07:59:17.491Z,84.54
2018-09-02T08:02:42.389Z,83.63
2018-09-02T08:06:07.171Z,83.29
2018-09-02T08:09:31.876Z,80.46
2018-09-02T08:12:56.726Z,82.43
2018-09-02T08:16:21.646Z,79.87
2018-09-02T08:19:46.999Z,80.88
2018-09-02T08:23:11.943Z,80.11
2018-09-02T08:26:36.863Z,77.95
2018-09-02T08:30:01.741Z,78.61
2018-09-02T08:33:26.457Z,77.72
2018-09-02T08:36:51.130Z,76.93
2018-09-02T08:40:15.792Z,77.11
2018-09-02T08:43:40.595Z,76.26
2018-09-02T08:47:05.339Z,74.15
2018-09-02T08:50:30.144Z,76.30
2018-09-02T08:53:54.789Z,73.79
2018-09-02T08:57:19.493Z,75.75
2018-09-02T09:00:45.126Z,75.07
2018-09-02T09:04:10.381Z,73.70
2018-09-02T09:07:35.430Z,73.89
2018-09-02T09:11:01.010Z,72.42
2018-09-02T09:14:26.009Z,72.17
2018-09-02T09:17:50.857Z,72.14
2018-09-02T09:21:15.696Z,71.06
2018-09-02T09:24:40.430Z,72.13
2018-09-02T09:28:05.320Z,71.96
2018-09-02T09:31:30.297Z,68.49
2018-09-02T09:34:55.305Z,69.02
2018-09-02T09:38:20.211Z,71.34
2018-09-02T09:41:45.149Z,70.54
2018-09-02T09:45:21.717Z,70.57
2018-09-02T09:48:48.108Z,71.29
2018-09-02T09:52:14.861Z,71.95
2018-09-02T09:55:40.487Z,70.24
2018-09-02T09:59:09.353Z,70.84
2018-09-02T10:02:36.772Z,72.08
2018-09-02T10:06:02.433Z,70.14
2018-09-02T10:09:27.959Z,69.97
2018-09-02T10:12:54.487Z,72.06
2018-09-02T10:16:20.631Z,72.57
2018-09-02T10:19:47.433Z,70.56
2018-09-02T10:23:13.291Z,72.94
2018-09-02T10:26:39.728Z,74.50
2018-09-02T10:30:05.452Z,74.63
2018-09-02T10:33:32.589Z,75.64
2018-09-02T10:36:58.344Z,75.38
2018-09-02T10:40:25.552Z,74.58
2018-09-02T10:43:50.655Z,75.65
2018-09-02T10:47:15.353Z,76.86
2018-09-02T10:50:40.088Z,75.45
2018-09-02T10:54:05.013Z,74.03
2018-09-02T10:57:29.793Z,74.95
2018-09-02T11:00:54.733Z,75.27
2018-09-02T11:04:19.476Z,75.24
2018-09-02T11:07:44.249Z,75.34
2018-09-02T11:11:09.018Z,74.58
2018-09-02T11:14:33.779Z,74.83
2018-09-02T11:17:58.582Z,74.10
2018-09-02T11:21:24.063Z,73.96
2018-09-02T11:24:49.499Z,74.90
2018-09-02T11:28:16.025Z,73.82
2018-09-02T11:31:40.945Z,73.23
2018-09-02T11:35:06.014Z,74.18
2018-09-02T11:38:30.919Z,75.68
2018-09-02T11:41:55.884Z,74.92
2018-09-02T11:45:21.171Z,73.46
2018-09-02T11:48:47.103Z,75.03
2018-09-02T11:52:13.131Z,73.60
2018-09-02T11:55:38.099Z,73.25
2018-09-02T11:59:02.982Z,73.70
2018-09-02T12:02:28.489Z,72.23
2018-09-02T12:05:53.314Z,72.36
2018-09-02T12:09:18.117Z,72.39
2018-09-02T12:12:43.121Z,71.41
2018-09-02T12:16:07.932Z,72.21
2018-09-02T12:19:32.727Z,70.49
2018-09-02T12:22:57.496Z,69.87
2018-09-02T12:26:22.299Z,68.99
2018-09-02T12:29:53.975Z,69.91
2018-09-02T12:33:18.993Z,69.04
2018-09-02T12:36:43.981Z,69.75
2018-09-02T12:40:09.371Z,69.61
2018-09-02T12:43:34.362Z,69.91
2018-09-02T12:46:59.273Z,70.74
2018-09-02T12:50:24.188Z,70.37
2018-09-02T12:53:49.018Z,70.38
2018-09-02T12:57:13.769Z,70.67
2018-09-02T13:00:38.693Z,70.38
2018-09-02T13:04:03.701Z,70.34
2018-09-02T13:07:28.632Z,70.83
2018-09-02T13:10:54.077Z,69.99
2018-09-02T13:14:18.935Z,70.22
2018-09-02T13:17:44.068Z,70.05
2018-09-02T13:21:09.261Z,68.63
2018-09-02T13:24:34.219Z,68.61
2018-09-02T13:27:59.049Z,67.54
2018-09-02T13:31:23.920Z,67.08
2018-09-02T13:34:48.871Z,65.67
2018-09-02T13:38:13.593Z,66.28
2018-09-02T13:41:38.803Z,66.69
2018-09-02T13:45:03.503Z,66.22
2018-09-02T13:48:28.297Z,66.64
2018-09-02T13:51:53.056Z,66.00
2018-09-02T13:55:17.834Z,66.50
2018-09-02T13:58:43.025Z,67.51
2018-09-02T14:02:09.193Z,68.94
2018-09-02T14:05:34.466Z,67.76
2018-09-02T14:08:59.157Z,67.62
2018-09-02T14:12:23.962Z,68.29
2018-09-02T14:15:48.812Z,68.84
2018-09-02T14:19:14.018Z,67.80
2018-09-02T14:31:41.066Z,67.65
2018-09-02T14:35:06.143Z,68.16
2018-09-02T14:38:30.844Z,68.40
2018-09-02T14:41:55.480Z,68.51
2018-09-02T14:45:20.197Z,67.66
2018-09-02T14:48:44.890Z,68.31
2018-09-02T14:52:09.542Z,68.90
2018-09-02T14:55:34.194Z,69.20
2018-09-02T14:58:59.534Z,69.27
2018-09-02T15:02:24.272Z,69.86
2018-09-02T15:05:48.994Z,71.14
2018-09-02T15:09:13.617Z,71.34
2018-09-02T15:12:38.494Z,71.53
2018-09-02T15:16:03.288Z,71.18
2018-09-02T15:19:27.944Z,71.71
2018-09-02T15:22:52.676Z,72.19
2018-09-02T15:26:17.457Z,70.97
2018-09-02T15:29:42.939Z,70.48
2018-09-02T15:33:07.776Z,72.04
2018-09-02T15:36:32.399Z,70.57
2018-09-02T15:39:57.947Z,70.68
2018-09-02T15:43:23.332Z,71.23
2018-09-02T15:46:48.185Z,70.69
2018-09-02T15:50:12.829Z,71.15
2018-09-02T15:53:37.515Z,71.77
2018-09-02T15:57:02.737Z,72.78
2018-09-02T16:00:27.475Z,72.18
2018-09-02T16:03:52.277Z,72.42
2018-09-02T16:07:17.169Z,72.00
2018-09-02T16:10:45.267Z,72.76
2018-09-02T16:14:14.269Z,72.82
2018-09-02T16:17:38.935Z,73.45
2018-09-02T16:21:03.636Z,73.34
2018-09-02T16:24:28.577Z,74.13
2018-09-02T16:27:53.226Z,73.77
2018-09-02T16:31:17.946Z,73.96
2018-09-02T16:34:42.665Z,74.40
2018-09-02T16:38:07.410Z,74.23
2018-09-02T16:41:32.129Z,75.39
2018-09-02T16:44:56.803Z,75.44
2018-09-02T16:48:21.492Z,75.03
2018-09-02T16:51:46.151Z,76.29
2018-09-02T16:55:10.857Z,75.62
2018-09-02T16:58:35.636Z,76.32
2018-09-02T17:02:00.168Z,76.37
2018-09-02T17:05:24.820Z,76.59
2018-09-02T17:08:49.488Z,77.74
2018-09-02T17:12:14.313Z,76.24
2018-09-02T17:15:38.865Z,75.09
2018-09-02T17:19:09.692Z,75.88
2018-09-02T17:22:34.344Z,77.38
2018-09-02T17:25:58.993Z,76.64
2018-09-02T17:29:23.814Z,76.69
2018-09-02T17:32:48.539Z,75.66
2018-09-02T17:36:13.438Z,77.37
2018-09-02T17:39:38.339Z,77.09
2018-09-02T17:43:03.378Z,78.23
2018-09-02T17:46:28.408Z,78.42
2018-09-02T17:49:53.328Z,78.39
2018-09-02T17:53:18.156Z,79.13
2018-09-02T17:56:43.477Z,80.05
2018-09-02T18:00:08.501Z,82.31
2018-09-02T18:03:33.266Z,83.47
2018-09-02T18:06:58.168Z,82.81
2018-09-02T18:10:23.014Z,84.44
2018-09-02T18:13:47.812Z,84.92
2018-09-02T18:17:12.717Z,86.02
2018-09-02T18:20:37.546Z,86.56
2018-09-02T18:24:02.390Z,84.00
2018-09-02T18:27:29.906Z,84.34
2018-09-02T18:30:54.698Z,84.47
2018-09-02T18:34:20.082Z,85.52
2018-09-02T18:37:45.486Z,86.10
2018-09-02T18:41:10.550Z,85.97
2018-09-02T18:44:36.234Z,85.82
2018-09-02T18:48:01.075Z,85.92
2018-09-02T18:51:25.880Z,86.46
2018-09-02T18:54:50.977Z,86.49
2018-09-02T18:58:16.638Z,86.45
2018-09-02T19:01:41.587Z,87.38
2018-09-02T19:05:06.638Z,87.81
2018-09-02T19:08:31.399Z,87.58
2018-09-02T19:11:56.224Z,88.32
2018-09-02T19:15:20.966Z,86.90
2018-09-02T19:18:45.870Z,87.17
2018-09-02T19:22:10.869Z,88.81
2018-09-02T19:25:35.606Z,88.24
2018-09-02T19:29:00.644Z,89.00
2018-09-02T19:32:25.378Z,90.32
2018-09-02T19:35:50.347Z,89.75
2018-09-02T19:39:15.035Z,90.10
2018-09-02T19:42:40.915Z,90.49
2018-09-02T19:46:05.768Z,90.37
2018-09-02T19:49:30.499Z,90.53
2018-09-02T19:52:55.261Z,90.00
2018-09-02T19:56:19.989Z,92.30
2018-09-02T19:59:44.809Z,92.21
2018-09-02T20:03:09.469Z,89.89
2018-09-02T20:06:34.274Z,90.82
2018-09-02T20:09:58.908Z,91.00
2018-09-02T20:13:23.583Z,90.32
2018-09-02T20:16:48.313Z,90.00
2018-09-02T20:20:12.945Z,89.67
2018-09-02T20:23:37.617Z,89.49
2018-09-02T20:27:02.276Z,91.17
2018-09-02T20:30:26.931Z,89.23
2018-09-02T20:33:51.658Z,89.87
2018-09-02T20:37:16.395Z,90.36
2018-09-02T20:40:41.121Z,90.89
2018-09-02T20:44:05.975Z,90.89
2018-09-02T20:47:30.614Z,90.70
2018-09-02T20:50:55.274Z,90.80
2018-09-02T20:54:20.036Z,91.79
2018-09-02T20:57:44.815Z,91.09
2018-09-02T21:01:09.522Z,91.39
2018-09-02T21:04:34.252Z,91.72
2018-09-02T21:07:58.919Z,92.39
2018-09-02T21:11:23.587Z,91.76
2018-09-02T21:14:48.572Z,92.51
2018-09-02T21:18:13.212Z,92.14
2018-09-02T21:21:37.957Z,92.87
2018-09-02T21:25:02.613Z,93.21
2018-09-02T21:28:27.252Z,93.75
2018-09-02T21:31:51.915Z,94.04
2018-09-02T21:35:16.599Z,92.83
2018-09-02T21:38:41.271Z,92.97
2018-09-02T21:42:05.914Z,91.97
2018-09-02T21:45:30.571Z,91.95
2018-09-02T21:48:55.202Z,92.47
2018-09-02T21:52:19.876Z,92.73
2018-09-02T21:55:44.542Z,93.79
2018-09-02T21:59:09.158Z,93.71
2018-09-02T22:02:33.880Z,93.95
2018-09-02T22:05:58.500Z,93.10
2018-09-02T22:09:23.210Z,92.35
2018-09-02T22:12:47.927Z,92.65
2018-09-02T22:16:12.666Z,92.61
2018-09-02T22:19:37.286Z,93.22
2018-09-02T22:23:01.988Z,93.40
2018-09-02T22:26:26.690Z,93.57
2018-09-02T22:29:51.349Z,94.92
2018-09-02T22:33:15.992Z,94.51
2018-09-02T22:36:40.679Z,93.60
2018-09-02T22:40:05.493Z,94.24
2018-09-02T22:43:30.212Z,94.20
2018-09-02T22:46:54.878Z,94.74
2018-09-02T22:50:19.577Z,94.24
2018-09-02T22:53:44.384Z,94.36
2018-09-02T22:57:09.148Z,95.88
2018-09-02T23:00:33.814Z,95.06
2018-09-02T23:03:58.488Z,95.01
2018-09-02T23:07:23.146Z,95.39
2018-09-02T23:10:47.808Z,95.51
2018-09-02T23:14:12.450Z,95.82
2018-09-02T23:17:37.094Z,95.09
2018-09-02T23:21:01.915Z,95.54
2018-09-02T23:24:26.576Z,95.16
2018-09-02T23:27:51.994Z,95.11
2018-09-02T23:31:16.658Z,94.92
2018-09-02T23:34:41.296Z,95.28
2018-09-02T23:38:06.044Z,95.00
2018-09-02T23:41:30.672Z,95.60
2018-09-02T23:44:55.352Z,96.02
2018-09-02T23:48:20.018Z,96.28
2018-09-02T23:51:44.623Z,96.27
2018-09-02T23:55:09.250Z,95.84
2018-09-02T23:58:33.899Z,96.66
